sensor_id;sensor_type;location;lat;lon;timestamp;P1;durP1;ratioP1;P2;durP2;ratioP2
20185;SDS011;10252;48.792;8.582;2023-03-01T00:03:00;19.13;;;12.23;;
20185;SDS011;10252;48.792;8.582;2023-03-01T00:08:01;24.30;;;12.40;;
20185;SDS011;10252;48.792;8.582;2023-03-01T00:13:02;22.80;;;11.52;;
20185;SDS011;10252;48.792;8.582;2023-03-01T00:18:05;22.23;;;12.10;;
20185;SDS011;10252;48.792;8.582;2023-03-01T00:23:06;23.25;;;12.38;;
20185;SDS011;10252;48.792;8.582;2023-03-01T00:28:07;21.48;;;12.75;;
20185;SDS011;10252;48.792;8.582;2023-03-01T00:33:08;24.98;;;12.90;;
20185;SDS011;10252;48.792;8.582;2023-03-01T00:38:10;20.05;;;11.68;;
20185;SDS011;10252;48.792;8.582;2023-03-01T00:49:15;22.13;;;12.25;;
20185;SDS011;10252;48.792;8.582;2023-03-01T00:54:16;21.58;;;12.57;;
20185;SDS011;10252;48.792;8.582;2023-03-01T00:59:17;21.58;;;11.95;;
20185;SDS011;10252;48.792;8.582;2023-03-01T01:04:18;21.85;;;12.35;;
20185;SDS011;10252;48.792;8.582;2023-03-01T01:09:19;20.60;;;11.85;;
20185;SDS011;10252;48.792;8.582;2023-03-01T01:14:20;25.45;;;12.73;;
20185;SDS011;10252;48.792;8.582;2023-03-01T01:19:22;22.33;;;12.57;;
20185;SDS011;10252;48.792;8.582;2023-03-01T01:24:24;23.45;;;11.50;;
20185;SDS011;10252;48.792;8.582;2023-03-01T01:29:25;26.38;;;13.23;;
20185;SDS011;10252;48.792;8.582;2023-03-01T01:34:26;25.23;;;11.98;;
20185;SDS011;10252;48.792;8.582;2023-03-01T01:39:27;23.48;;;13.25;;
20185;SDS011;10252;48.792;8.582;2023-03-01T01:44:28;23.92;;;12.23;;
20185;SDS011;10252;48.792;8.582;2023-03-01T01:59:54;24.48;;;12.45;;
20185;SDS011;10252;48.792;8.582;2023-03-01T02:05:06;19.80;;;12.45;;
20185;SDS011;10252;48.792;8.582;2023-03-01T02:10:10;21.85;;;12.80;;
20185;SDS011;10252;48.792;8.582;2023-03-01T02:15:12;23.92;;;12.80;;
20185;SDS011;10252;48.792;8.582;2023-03-01T02:25:52;22.15;;;12.48;;
20185;SDS011;10252;48.792;8.582;2023-03-01T02:30:56;29.52;;;12.85;;
20185;SDS011;10252;48.792;8.582;2023-03-01T02:36:17;21.73;;;12.27;;
20185;SDS011;10252;48.792;8.582;2023-03-01T02:41:20;22.63;;;13.10;;
20185;SDS011;10252;48.792;8.582;2023-03-01T02:46:22;23.50;;;12.32;;
20185;SDS011;10252;48.792;8.582;2023-03-01T02:56:34;24.38;;;12.18;;
20185;SDS011;10252;48.792;8.582;2023-03-01T03:01:35;24.80;;;12.90;;
20185;SDS011;10252;48.792;8.582;2023-03-01T03:06:38;26.85;;;13.18;;
20185;SDS011;10252;48.792;8.582;2023-03-01T03:11:39;23.02;;;13.05;;
20185;SDS011;10252;48.792;8.582;2023-03-01T03:16:42;23.88;;;13.57;;
20185;SDS011;10252;48.792;8.582;2023-03-01T03:21:44;25.58;;;12.20;;
20185;SDS011;10252;48.792;8.582;2023-03-01T03:26:45;19.83;;;12.30;;
20185;SDS011;10252;48.792;8.582;2023-03-01T03:31:49;23.70;;;12.35;;
20185;SDS011;10252;48.792;8.582;2023-03-01T03:37:36;23.55;;;12.85;;
20185;SDS011;10252;48.792;8.582;2023-03-01T03:42:57;21.45;;;12.13;;
20185;SDS011;10252;48.792;8.582;2023-03-01T03:47:58;22.45;;;13.27;;
20185;SDS011;10252;48.792;8.582;2023-03-01T03:53:00;27.02;;;13.85;;
20185;SDS011;10252;48.792;8.582;2023-03-01T03:58:02;25.27;;;13.40;;
20185;SDS011;10252;48.792;8.582;2023-03-01T04:03:06;25.17;;;13.90;;
20185;SDS011;10252;48.792;8.582;2023-03-01T04:08:08;23.50;;;13.25;;
20185;SDS011;10252;48.792;8.582;2023-03-01T04:13:11;25.60;;;13.40;;
20185;SDS011;10252;48.792;8.582;2023-03-01T04:18:12;26.08;;;13.43;;
20185;SDS011;10252;48.792;8.582;2023-03-01T04:29:18;25.25;;;14.18;;
20185;SDS011;10252;48.792;8.582;2023-03-01T04:34:19;25.60;;;14.10;;
20185;SDS011;10252;48.792;8.582;2023-03-01T04:39:20;29.88;;;14.10;;
20185;SDS011;10252;48.792;8.582;2023-03-01T04:44:21;26.00;;;13.60;;
20185;SDS011;10252;48.792;8.582;2023-03-01T04:49:22;27.50;;;13.15;;
20185;SDS011;10252;48.792;8.582;2023-03-01T04:54:23;25.33;;;13.95;;
20185;SDS011;10252;48.792;8.582;2023-03-01T04:59:24;25.75;;;14.40;;
20185;SDS011;10252;48.792;8.582;2023-03-01T05:04:25;23.00;;;13.43;;
20185;SDS011;10252;48.792;8.582;2023-03-01T05:09:27;25.23;;;14.48;;
20185;SDS011;10252;48.792;8.582;2023-03-01T05:14:28;29.05;;;16.27;;
20185;SDS011;10252;48.792;8.582;2023-03-01T05:19:29;36.78;;;20.27;;
20185;SDS011;10252;48.792;8.582;2023-03-01T05:24:31;26.60;;;14.80;;
20185;SDS011;10252;48.792;8.582;2023-03-01T05:29:33;24.50;;;13.63;;
20185;SDS011;10252;48.792;8.582;2023-03-01T05:34:35;26.33;;;14.25;;
20185;SDS011;10252;48.792;8.582;2023-03-01T05:39:37;24.90;;;14.02;;
20185;SDS011;10252;48.792;8.582;2023-03-01T05:44:38;27.15;;;14.63;;
20185;SDS011;10252;48.792;8.582;2023-03-01T05:49:39;24.10;;;13.98;;
20185;SDS011;10252;48.792;8.582;2023-03-01T05:54:40;24.02;;;14.25;;
20185;SDS011;10252;48.792;8.582;2023-03-01T05:59:41;29.00;;;15.48;;
20185;SDS011;10252;48.792;8.582;2023-03-01T06:04:42;27.90;;;15.25;;
20185;SDS011;10252;48.792;8.582;2023-03-01T06:09:43;28.50;;;15.65;;
20185;SDS011;10252;48.792;8.582;2023-03-01T06:14:45;27.67;;;15.80;;
20185;SDS011;10252;48.792;8.582;2023-03-01T06:19:47;30.02;;;15.27;;
20185;SDS011;10252;48.792;8.582;2023-03-01T06:24:48;25.77;;;15.43;;
20185;SDS011;10252;48.792;8.582;2023-03-01T06:29:49;24.15;;;15.02;;
20185;SDS011;10252;48.792;8.582;2023-03-01T06:34:50;30.95;;;16.25;;
20185;SDS011;10252;48.792;8.582;2023-03-01T06:39:52;24.23;;;15.43;;
20185;SDS011;10252;48.792;8.582;2023-03-01T06:44:53;27.73;;;16.15;;
20185;SDS011;10252;48.792;8.582;2023-03-01T06:49:54;29.00;;;16.38;;
20185;SDS011;10252;48.792;8.582;2023-03-01T06:54:55;27.42;;;16.80;;
20185;SDS011;10252;48.792;8.582;2023-03-01T06:59:56;31.65;;;16.90;;
20185;SDS011;10252;48.792;8.582;2023-03-01T07:04:57;31.85;;;16.98;;
20185;SDS011;10252;48.792;8.582;2023-03-01T07:09:58;33.75;;;17.98;;
20185;SDS011;10252;48.792;8.582;2023-03-01T07:14:59;33.17;;;19.90;;
20185;SDS011;10252;48.792;8.582;2023-03-01T07:20:00;28.98;;;17.88;;
20185;SDS011;10252;48.792;8.582;2023-03-01T07:25:01;33.13;;;18.77;;
20185;SDS011;10252;48.792;8.582;2023-03-01T07:30:02;29.88;;;18.05;;
20185;SDS011;10252;48.792;8.582;2023-03-01T07:35:03;29.85;;;16.02;;
20185;SDS011;10252;48.792;8.582;2023-03-01T07:40:05;30.20;;;17.35;;
20185;SDS011;10252;48.792;8.582;2023-03-01T07:45:06;31.65;;;16.67;;
20185;SDS011;10252;48.792;8.582;2023-03-01T07:50:08;30.23;;;16.73;;
20185;SDS011;10252;48.792;8.582;2023-03-01T07:55:09;26.45;;;16.70;;
20185;SDS011;10252;48.792;8.582;2023-03-01T08:00:10;27.00;;;17.20;;
20185;SDS011;10252;48.792;8.582;2023-03-01T08:05:14;28.02;;;16.73;;
20185;SDS011;10252;48.792;8.582;2023-03-01T08:10:16;35.08;;;18.63;;
20185;SDS011;10252;48.792;8.582;2023-03-01T08:15:17;31.00;;;17.38;;
20185;SDS011;10252;48.792;8.582;2023-03-01T08:20:19;39.45;;;21.33;;
20185;SDS011;10252;48.792;8.582;2023-03-01T08:25:20;29.58;;;17.30;;
20185;SDS011;10252;48.792;8.582;2023-03-01T08:30:21;32.08;;;19.05;;
20185;SDS011;10252;48.792;8.582;2023-03-01T08:35:23;33.40;;;18.83;;
20185;SDS011;10252;48.792;8.582;2023-03-01T08:40:24;33.03;;;18.77;;
20185;SDS011;10252;48.792;8.582;2023-03-01T08:45:26;33.90;;;18.25;;
20185;SDS011;10252;48.792;8.582;2023-03-01T08:50:27;55.35;;;31.55;;
20185;SDS011;10252;48.792;8.582;2023-03-01T08:55:28;37.90;;;19.10;;
20185;SDS011;10252;48.792;8.582;2023-03-01T09:00:29;34.00;;;19.52;;
20185;SDS011;10252;48.792;8.582;2023-03-01T09:05:33;31.45;;;17.75;;
20185;SDS011;10252;48.792;8.582;2023-03-01T09:10:36;33.88;;;18.05;;
20185;SDS011;10252;48.792;8.582;2023-03-01T09:15:38;31.48;;;17.33;;
20185;SDS011;10252;48.792;8.582;2023-03-01T09:20:39;32.40;;;20.50;;
20185;SDS011;10252;48.792;8.582;2023-03-01T09:25:40;35.78;;;19.65;;
20185;SDS011;10252;48.792;8.582;2023-03-01T09:30:41;30.48;;;19.05;;
20185;SDS011;10252;48.792;8.582;2023-03-01T09:35:42;28.30;;;16.40;;
20185;SDS011;10252;48.792;8.582;2023-03-01T09:40:46;29.55;;;17.80;;
20185;SDS011;10252;48.792;8.582;2023-03-01T09:45:48;27.60;;;16.30;;
20185;SDS011;10252;48.792;8.582;2023-03-01T09:50:51;28.98;;;16.63;;
20185;SDS011;10252;48.792;8.582;2023-03-01T09:56:00;27.13;;;16.65;;
20185;SDS011;10252;48.792;8.582;2023-03-01T10:01:06;30.95;;;16.73;;
20185;SDS011;10252;48.792;8.582;2023-03-01T10:06:21;26.48;;;16.90;;
20185;SDS011;10252;48.792;8.582;2023-03-01T10:11:24;23.98;;;16.45;;
20185;SDS011;10252;48.792;8.582;2023-03-01T10:21:34;25.85;;;17.83;;
20185;SDS011;10252;48.792;8.582;2023-03-01T10:26:56;25.30;;;15.98;;
20185;SDS011;10252;48.792;8.582;2023-03-01T10:31:59;28.55;;;17.45;;
20185;SDS011;10252;48.792;8.582;2023-03-01T10:42:19;30.02;;;17.88;;
20185;SDS011;10252;48.792;8.582;2023-03-01T10:47:25;26.35;;;17.23;;
20185;SDS011;10252;48.792;8.582;2023-03-01T10:52:28;29.05;;;17.33;;
20185;SDS011;10252;48.792;8.582;2023-03-01T10:57:32;24.65;;;16.60;;
20185;SDS011;10252;48.792;8.582;2023-03-01T11:02:33;28.35;;;17.88;;
20185;SDS011;10252;48.792;8.582;2023-03-01T11:07:46;27.23;;;16.92;;
20185;SDS011;10252;48.792;8.582;2023-03-01T11:12:47;26.98;;;17.42;;
20185;SDS011;10252;48.792;8.582;2023-03-01T11:17:49;24.25;;;16.88;;
20185;SDS011;10252;48.792;8.582;2023-03-01T11:22:52;27.17;;;18.52;;
20185;SDS011;10252;48.792;8.582;2023-03-01T11:27:54;25.77;;;16.40;;
20185;SDS011;10252;48.792;8.582;2023-03-01T11:38:17;22.70;;;16.10;;
20185;SDS011;10252;48.792;8.582;2023-03-01T11:54:02;24.60;;;16.05;;
20185;SDS011;10252;48.792;8.582;2023-03-01T12:19:59;27.58;;;17.17;;
20185;SDS011;10252;48.792;8.582;2023-03-01T12:40:41;27.23;;;16.60;;
20185;SDS011;10252;48.792;8.582;2023-03-01T12:51:15;26.75;;;16.35;;
20185;SDS011;10252;48.792;8.582;2023-03-01T12:56:19;28.67;;;16.73;;
20185;SDS011;10252;48.792;8.582;2023-03-01T13:12:45;25.13;;;16.05;;
20185;SDS011;10252;48.792;8.582;2023-03-01T13:17:46;27.10;;;16.67;;
20185;SDS011;10252;48.792;8.582;2023-03-01T13:22:48;22.05;;;16.35;;
20185;SDS011;10252;48.792;8.582;2023-03-01T13:43:38;28.30;;;17.50;;
20185;SDS011;10252;48.792;8.582;2023-03-01T13:48:42;24.45;;;16.42;;
20185;SDS011;10252;48.792;8.582;2023-03-01T13:53:45;26.15;;;16.95;;
20185;SDS011;10252;48.792;8.582;2023-03-01T13:58:52;22.95;;;16.27;;
20185;SDS011;10252;48.792;8.582;2023-03-01T14:03:54;25.55;;;16.35;;
20185;SDS011;10252;48.792;8.582;2023-03-01T14:09:05;23.73;;;16.58;;
20185;SDS011;10252;48.792;8.582;2023-03-01T14:14:20;24.45;;;16.67;;
20185;SDS011;10252;48.792;8.582;2023-03-01T14:19:25;25.95;;;17.05;;
20185;SDS011;10252;48.792;8.582;2023-03-01T14:24:27;27.48;;;17.40;;
20185;SDS011;10252;48.792;8.582;2023-03-01T14:29:35;24.48;;;16.98;;
20185;SDS011;10252;48.792;8.582;2023-03-01T14:34:38;25.20;;;18.15;;
20185;SDS011;10252;48.792;8.582;2023-03-01T14:39:43;23.48;;;17.25;;
20185;SDS011;10252;48.792;8.582;2023-03-01T14:44:45;30.00;;;17.58;;
20185;SDS011;10252;48.792;8.582;2023-03-01T14:49:46;26.95;;;17.95;;
20185;SDS011;10252;48.792;8.582;2023-03-01T14:54:50;28.70;;;17.42;;
20185;SDS011;10252;48.792;8.582;2023-03-01T14:59:53;24.23;;;17.20;;
20185;SDS011;10252;48.792;8.582;2023-03-01T15:04:55;24.98;;;17.50;;
20185;SDS011;10252;48.792;8.582;2023-03-01T15:09:57;38.53;;;25.10;;
20185;SDS011;10252;48.792;8.582;2023-03-01T15:14:59;24.23;;;17.10;;
20185;SDS011;10252;48.792;8.582;2023-03-01T15:20:00;24.50;;;16.75;;
20185;SDS011;10252;48.792;8.582;2023-03-01T15:25:03;24.92;;;16.33;;
20185;SDS011;10252;48.792;8.582;2023-03-01T15:30:04;28.98;;;19.67;;
20185;SDS011;10252;48.792;8.582;2023-03-01T15:40:29;23.55;;;17.13;;
20185;SDS011;10252;48.792;8.582;2023-03-01T15:45:34;27.80;;;18.67;;
20185;SDS011;10252;48.792;8.582;2023-03-01T15:50:37;24.17;;;16.85;;
20185;SDS011;10252;48.792;8.582;2023-03-01T15:55:40;27.50;;;18.00;;
20185;SDS011;10252;48.792;8.582;2023-03-01T16:00:41;26.67;;;17.85;;
20185;SDS011;10252;48.792;8.582;2023-03-01T16:05:43;43.65;;;26.08;;
20185;SDS011;10252;48.792;8.582;2023-03-01T16:10:44;29.35;;;19.00;;
20185;SDS011;10252;48.792;8.582;2023-03-01T16:15:46;28.40;;;16.88;;
20185;SDS011;10252;48.792;8.582;2023-03-01T16:20:47;38.60;;;22.83;;
20185;SDS011;10252;48.792;8.582;2023-03-01T16:25:48;29.52;;;18.00;;
20185;SDS011;10252;48.792;8.582;2023-03-01T16:30:49;29.02;;;18.33;;
20185;SDS011;10252;48.792;8.582;2023-03-01T16:35:51;43.03;;;26.98;;
20185;SDS011;10252;48.792;8.582;2023-03-01T16:40:52;27.38;;;17.77;;
20185;SDS011;10252;48.792;8.582;2023-03-01T16:45:53;27.55;;;15.95;;
20185;SDS011;10252;48.792;8.582;2023-03-01T16:51:00;24.95;;;15.80;;
20185;SDS011;10252;48.792;8.582;2023-03-01T16:56:02;27.98;;;15.45;;
20185;SDS011;10252;48.792;8.582;2023-03-01T17:01:07;28.27;;;16.05;;
20185;SDS011;10252;48.792;8.582;2023-03-01T17:06:10;24.65;;;15.73;;
20185;SDS011;10252;48.792;8.582;2023-03-01T17:11:15;26.38;;;15.73;;
20185;SDS011;10252;48.792;8.582;2023-03-01T17:16:18;23.98;;;14.65;;
20185;SDS011;10252;48.792;8.582;2023-03-01T17:21:19;23.92;;;14.57;;
20185;SDS011;10252;48.792;8.582;2023-03-01T17:26:20;26.30;;;15.00;;
20185;SDS011;10252;48.792;8.582;2023-03-01T17:31:21;23.90;;;14.98;;
20185;SDS011;10252;48.792;8.582;2023-03-01T17:36:22;23.23;;;13.95;;
20185;SDS011;10252;48.792;8.582;2023-03-01T17:41:25;23.83;;;13.95;;
20185;SDS011;10252;48.792;8.582;2023-03-01T17:46:26;26.95;;;15.85;;
20185;SDS011;10252;48.792;8.582;2023-03-01T17:51:27;24.88;;;15.00;;
20185;SDS011;10252;48.792;8.582;2023-03-01T17:56:28;23.67;;;14.02;;
20185;SDS011;10252;48.792;8.582;2023-03-01T18:01:31;24.33;;;14.32;;
20185;SDS011;10252;48.792;8.582;2023-03-01T18:06:32;25.27;;;14.05;;
20185;SDS011;10252;48.792;8.582;2023-03-01T18:11:35;25.95;;;14.43;;
20185;SDS011;10252;48.792;8.582;2023-03-01T18:16:36;28.10;;;16.10;;
20185;SDS011;10252;48.792;8.582;2023-03-01T18:21:38;31.02;;;17.02;;
20185;SDS011;10252;48.792;8.582;2023-03-01T18:26:39;38.55;;;20.48;;
20185;SDS011;10252;48.792;8.582;2023-03-01T18:31:41;29.40;;;16.88;;
20185;SDS011;10252;48.792;8.582;2023-03-01T18:36:42;30.05;;;16.65;;
20185;SDS011;10252;48.792;8.582;2023-03-01T18:41:43;31.52;;;16.55;;
20185;SDS011;10252;48.792;8.582;2023-03-01T18:46:44;31.15;;;17.45;;
20185;SDS011;10252;48.792;8.582;2023-03-01T18:51:45;33.72;;;18.90;;
20185;SDS011;10252;48.792;8.582;2023-03-01T18:56:46;42.22;;;22.60;;
20185;SDS011;10252;48.792;8.582;2023-03-01T19:01:47;32.83;;;19.45;;
20185;SDS011;10252;48.792;8.582;2023-03-01T19:06:48;38.47;;;19.42;;
20185;SDS011;10252;48.792;8.582;2023-03-01T19:11:50;32.70;;;18.48;;
20185;SDS011;10252;48.792;8.582;2023-03-01T19:16:51;35.75;;;18.50;;
20185;SDS011;10252;48.792;8.582;2023-03-01T19:21:52;31.42;;;18.50;;
20185;SDS011;10252;48.792;8.582;2023-03-01T19:26:54;34.08;;;18.40;;
20185;SDS011;10252;48.792;8.582;2023-03-01T19:31:55;28.83;;;16.27;;
20185;SDS011;10252;48.792;8.582;2023-03-01T19:36:57;32.67;;;17.95;;
20185;SDS011;10252;48.792;8.582;2023-03-01T19:41:58;30.48;;;18.08;;
20185;SDS011;10252;48.792;8.582;2023-03-01T19:46:59;29.80;;;17.08;;
20185;SDS011;10252;48.792;8.582;2023-03-01T19:52:00;31.60;;;17.63;;
20185;SDS011;10252;48.792;8.582;2023-03-01T19:57:01;34.72;;;16.63;;
20185;SDS011;10252;48.792;8.582;2023-03-01T20:02:02;32.17;;;16.63;;
20185;SDS011;10252;48.792;8.582;2023-03-01T20:07:03;34.70;;;18.30;;
20185;SDS011;10252;48.792;8.582;2023-03-01T20:12:04;32.63;;;18.40;;
20185;SDS011;10252;48.792;8.582;2023-03-01T20:17:06;29.73;;;16.15;;
20185;SDS011;10252;48.792;8.582;2023-03-01T20:22:07;32.10;;;17.42;;
20185;SDS011;10252;48.792;8.582;2023-03-01T20:27:08;31.83;;;17.35;;
20185;SDS011;10252;48.792;8.582;2023-03-01T20:32:09;31.83;;;17.92;;
20185;SDS011;10252;48.792;8.582;2023-03-01T20:37:11;31.85;;;16.67;;
20185;SDS011;10252;48.792;8.582;2023-03-01T20:42:12;32.30;;;16.70;;
20185;SDS011;10252;48.792;8.582;2023-03-01T20:47:13;32.95;;;17.35;;
20185;SDS011;10252;48.792;8.582;2023-03-01T20:52:14;35.33;;;18.88;;
20185;SDS011;10252;48.792;8.582;2023-03-01T20:57:15;34.03;;;17.38;;
20185;SDS011;10252;48.792;8.582;2023-03-01T21:02:16;29.80;;;17.27;;
20185;SDS011;10252;48.792;8.582;2023-03-01T21:07:17;33.60;;;18.42;;
20185;SDS011;10252;48.792;8.582;2023-03-01T21:12:18;36.67;;;19.30;;
20185;SDS011;10252;48.792;8.582;2023-03-01T21:17:19;37.35;;;19.35;;
20185;SDS011;10252;48.792;8.582;2023-03-01T21:22:21;34.08;;;17.45;;
20185;SDS011;10252;48.792;8.582;2023-03-01T21:27:22;31.77;;;17.00;;
20185;SDS011;10252;48.792;8.582;2023-03-01T21:32:23;34.60;;;18.85;;
20185;SDS011;10252;48.792;8.582;2023-03-01T21:37:24;36.83;;;17.52;;
20185;SDS011;10252;48.792;8.582;2023-03-01T21:42:28;39.78;;;19.30;;
20185;SDS011;10252;48.792;8.582;2023-03-01T21:47:30;34.55;;;17.88;;
20185;SDS011;10252;48.792;8.582;2023-03-01T21:52:33;34.42;;;18.85;;
20185;SDS011;10252;48.792;8.582;2023-03-01T21:57:34;36.13;;;19.30;;
20185;SDS011;10252;48.792;8.582;2023-03-01T22:02:42;36.45;;;18.98;;
20185;SDS011;10252;48.792;8.582;2023-03-01T22:07:43;33.50;;;18.70;;
20185;SDS011;10252;48.792;8.582;2023-03-01T22:12:44;36.10;;;17.83;;
20185;SDS011;10252;48.792;8.582;2023-03-01T22:17:45;35.53;;;16.73;;
20185;SDS011;10252;48.792;8.582;2023-03-01T22:22:46;37.08;;;18.90;;
20185;SDS011;10252;48.792;8.582;2023-03-01T22:27:47;31.10;;;17.52;;
20185;SDS011;10252;48.792;8.582;2023-03-01T22:32:48;35.97;;;17.15;;
20185;SDS011;10252;48.792;8.582;2023-03-01T22:37:49;33.60;;;16.58;;
20185;SDS011;10252;48.792;8.582;2023-03-01T22:42:51;34.40;;;16.67;;
20185;SDS011;10252;48.792;8.582;2023-03-01T22:47:53;32.20;;;17.08;;
20185;SDS011;10252;48.792;8.582;2023-03-01T22:52:54;29.40;;;16.42;;
20185;SDS011;10252;48.792;8.582;2023-03-01T22:57:55;33.17;;;17.33;;
20185;SDS011;10252;48.792;8.582;2023-03-01T23:02:56;33.58;;;17.05;;
20185;SDS011;10252;48.792;8.582;2023-03-01T23:07:57;34.22;;;16.52;;
20185;SDS011;10252;48.792;8.582;2023-03-01T23:12:58;33.38;;;16.75;;
20185;SDS011;10252;48.792;8.582;2023-03-01T23:17:59;33.53;;;17.50;;
20185;SDS011;10252;48.792;8.582;2023-03-01T23:23:00;31.25;;;16.35;;
20185;SDS011;10252;48.792;8.582;2023-03-01T23:28:02;36.15;;;17.95;;
20185;SDS011;10252;48.792;8.582;2023-03-01T23:33:03;33.83;;;17.55;;
20185;SDS011;10252;48.792;8.582;2023-03-01T23:38:04;30.67;;;17.73;;
20185;SDS011;10252;48.792;8.582;2023-03-01T23:43:05;35.63;;;18.20;;
20185;SDS011;10252;48.792;8.582;2023-03-01T23:48:06;39.00;;;19.63;;
20185;SDS011;10252;48.792;8.582;2023-03-01T23:53:08;34.33;;;18.35;;
20185;SDS011;10252;48.792;8.582;2023-03-01T23:58:09;41.03;;;19.50;;
